Time;durP1;ratioP1;P1;durP2;ratioP2;P2;SDS_P1;SDS_P2;PMS_P1;PMS_P2;Temp;Humidity;BMP_temperature;BMP_pressure;BME280_temperature;BME280_humidity;BME280_pressure;Samples;Min_cycle;Max_cycle;Signal;HPM_P1;HPM_P2
2023/01/23 00:06:03;;;;;;;36.10;18.60;;;;;;;-0.81;100.00;101068.20;440533;1251;144305;-61
2023/01/23 00:16:13;;;;;;;30.90;18.20;;;;;;;-0.80;100.00;101088.84;433929;1251;147076;-61
2023/01/23 00:26:23;;;;;;;29.90;16.50;;;;;;;-0.78;100.00;101090.92;434330;1255;148574;-62
2023/01/23 00:36:32;;;;;;;29.00;17.40;;;;;;;-0.73;100.00;101109.70;433476;1251;144537;-63
2023/01/23 00:46:38;;;;;;;32.00;18.10;;;;;;;-0.73;100.00;101121.73;435234;1251;143129;-60
2023/01/23 00:56:44;;;;;;;29.30;18.80;;;;;;;-0.73;100.00;101125.86;434105;1254;142618;-62
2023/01/23 01:06:50;;;;;;;26.30;17.10;;;;;;;-0.72;100.00;101121.93;433931;1251;145440;-62
2023/01/23 01:16:57;;;;;;;28.00;16.80;;;;;;;-0.71;100.00;101117.10;438946;1251;143363;-61
2023/01/23 01:27:03;;;;;;;27.70;17.10;;;;;;;-0.68;100.00;101122.46;435671;1251;143294;-61
2023/01/23 01:37:09;;;;;;;30.60;16.50;;;;;;;-0.65;100.00;101133.84;434665;1251;143358;-61
2023/01/23 01:47:14;;;;;;;30.20;18.70;;;;;;;-0.64;100.00;101148.80;434777;1251;143897;-62
2023/01/23 01:57:24;;;;;;;30.50;17.90;;;;;;;-0.61;100.00;101140.73;433041;1251;146565;-60
2023/01/23 02:07:35;;;;;;;29.40;18.00;;;;;;;-0.63;100.00;101141.07;435636;1250;143278;-61
2023/01/23 02:17:41;;;;;;;29.30;18.10;;;;;;;-0.66;100.00;101149.48;434825;1251;147787;-61
2023/01/23 02:27:47;;;;;;;31.40;20.30;;;;;;;-0.66;100.00;101176.14;436192;1251;148036;-62
2023/01/23 02:37:55;;;;;;;30.30;18.10;;;;;;;-0.67;100.00;101185.23;435101;1251;144513;-62
2023/01/23 02:48:01;;;;;;;30.00;15.60;;;;;;;-0.67;100.00;101189.72;438271;1251;144026;-60
2023/01/23 03:08:32;;;;;;;32.10;16.40;;;;;;;-0.62;100.00;101211.95;434278;1250;143459;-61
2023/01/23 03:18:38;;;;;;;27.10;16.90;;;;;;;-0.61;100.00;101216.77;440397;1250;144035;-62
2023/01/23 03:49:45;;;;;;;27.70;15.20;;;;;;;-0.61;100.00;101195.63;435470;1253;147353;-61
2023/01/23 03:59:51;;;;;;;24.40;14.50;;;;;;;-0.64;100.00;101205.91;433892;1251;142050;-61
2023/01/23 04:09:57;;;;;;;25.80;15.30;;;;;;;-0.62;100.00;101198.70;433179;1251;145592;-60
2023/01/23 04:20:03;;;;;;;24.10;14.40;;;;;;;-0.63;100.00;101201.61;436510;1251;142272;-62
2023/01/23 04:30:13;;;;;;;25.30;14.50;;;;;;;-0.62;100.00;101203.19;441484;1250;142999;-62
2023/01/23 04:40:19;;;;;;;22.00;14.70;;;;;;;-0.62;100.00;101215.91;434023;1251;142840;-62
2023/01/23 04:50:26;;;;;;;24.10;13.80;;;;;;;-0.60;100.00;101211.80;434459;1250;144058;-60
2023/01/23 05:00:32;;;;;;;25.00;17.20;;;;;;;-0.59;100.00;101228.65;433852;1254;142828;-60
2023/01/23 05:10:38;;;;;;;27.50;17.50;;;;;;;-0.62;100.00;101237.23;434926;1252;144068;-60
2023/01/23 05:20:44;;;;;;;24.00;14.70;;;;;;;-0.60;100.00;101246.19;435327;1251;142469;-60
2023/01/23 05:30:50;;;;;;;25.80;15.20;;;;;;;-0.60;100.00;101251.70;435224;1252;147770;-63
2023/01/23 05:40:56;;;;;;;24.60;13.80;;;;;;;-0.56;100.00;101258.80;435995;1250;142821;-61
2023/01/23 05:51:03;;;;;;;25.90;16.60;;;;;;;-0.59;100.00;101267.54;448177;1250;141938;-62
2023/01/23 06:01:09;;;;;;;22.20;14.20;;;;;;;-0.58;100.00;101289.04;449371;1251;142722;-62
2023/01/23 06:11:15;;;;;;;21.20;14.20;;;;;;;-0.52;100.00;101301.31;450302;1251;188300;-62
2023/01/23 06:21:21;;;;;;;23.50;15.40;;;;;;;-0.46;100.00;101317.21;449622;1251;142905;-62
2023/01/23 06:31:29;;;;;;;24.00;15.70;;;;;;;-0.49;100.00;101325.95;434705;1251;142962;-61
2023/01/23 06:41:35;;;;;;;26.70;16.60;;;;;;;-0.44;100.00;101353.20;450121;1251;144193;-60
2023/01/23 06:51:40;;;;;;;25.30;15.40;;;;;;;-0.39;100.00;101370.27;449461;1251;201729;-61
2023/01/23 07:01:46;;;;;;;25.60;15.50;;;;;;;-0.38;100.00;101386.80;450293;1251;143298;-61
2023/01/23 07:11:52;;;;;;;31.00;17.60;;;;;;;-0.39;100.00;101394.54;450260;1252;143525;-61
2023/01/23 07:21:59;;;;;;;28.60;18.30;;;;;;;-0.41;100.00;101402.62;445474;1251;142741;-61
2023/01/23 07:32:06;;;;;;;27.40;15.50;;;;;;;-0.34;100.00;101407.14;450198;1251;143881;-61
2023/01/23 07:42:15;;;;;;;26.00;14.80;;;;;;;-0.27;100.00;101407.91;450266;1251;143441;-62
2023/01/23 07:52:21;;;;;;;25.10;15.30;;;;;;;-0.22;100.00;101404.69;449835;1251;146073;-62
2023/01/23 08:02:27;;;;;;;24.00;13.10;;;;;;;-0.21;100.00;101414.00;450303;1251;143585;-62
2023/01/23 08:12:32;;;;;;;23.20;13.40;;;;;;;-0.12;100.00;101421.83;449554;1251;143397;-61
2023/01/23 08:22:39;;;;;;;22.00;13.10;;;;;;;0.02;100.00;101427.64;447874;1252;143739;-61
2023/01/23 08:32:46;;;;;;;25.00;15.10;;;;;;;0.12;100.00;101425.67;450323;1251;144464;-61
2023/01/23 08:42:53;;;;;;;23.70;15.00;;;;;;;0.14;100.00;101438.92;449672;1251;144818;-62
2023/01/23 08:53:02;;;;;;;24.80;14.00;;;;;;;0.18;100.00;101446.73;450358;1251;143481;-62
2023/01/23 09:03:09;;;;;;;22.30;13.60;;;;;;;0.25;100.00;101450.05;450319;1251;143607;-62
2023/01/23 09:13:18;;;;;;;26.30;15.50;;;;;;;0.30;100.00;101455.95;449536;1251;143202;-61
2023/01/23 09:23:25;;;;;;;27.70;16.40;;;;;;;0.41;100.00;101466.55;450224;1252;142981;-62
2023/01/23 09:33:31;;;;;;;24.70;14.60;;;;;;;0.51;100.00;101468.52;449495;1251;145652;-62
2023/01/23 09:43:44;;;;;;;23.20;14.90;;;;;;;0.66;100.00;101467.95;450227;1254;144407;-62
2023/01/23 09:53:52;;;;;;;22.70;14.60;;;;;;;0.87;100.00;101470.34;450260;1252;142122;-62
2023/01/23 10:04:00;;;;;;;23.30;14.40;;;;;;;0.93;100.00;101466.92;444731;1252;142995;-62
2023/01/23 10:14:25;;;;;;;23.30;15.00;;;;;;;1.15;100.00;101464.27;450308;1251;142636;-62
2023/01/23 10:24:44;;;;;;;25.60;17.30;;;;;;;1.27;100.00;101460.89;449160;1251;187479;-62
2023/01/23 10:34:56;;;;;;;28.20;16.10;;;;;;;1.21;100.00;101462.58;450277;1252;143018;-62
2023/01/23 10:45:03;;;;;;;18.80;12.50;;;;;;;1.24;100.00;101458.11;450410;1251;144167;-63
2023/01/23 10:55:28;;;;;;;21.90;13.40;;;;;;;1.44;100.00;101448.19;449573;1251;144483;-61
2023/01/23 11:05:38;;;;;;;20.40;14.60;;;;;;;1.58;100.00;101439.95;450457;1251;143324;-62
2023/01/23 11:15:57;;;;;;;27.30;13.90;;;;;;;1.57;100.00;101435.80;449611;1252;143578;-62
2023/01/23 11:26:03;;;;;;;21.90;16.10;;;;;;;1.62;100.00;101426.67;444766;1251;143132;-62
2023/01/23 11:36:28;;;;;;;24.50;14.70;;;;;;;1.57;100.00;101424.92;450369;1252;144070;-62
2023/01/23 11:46:54;;;;;;;23.50;14.50;;;;;;;1.54;100.00;101428.38;449867;1251;196884;-62
2023/01/23 11:57:09;;;;;;;23.70;15.90;;;;;;;1.47;100.00;101429.90;450487;1251;143539;-62
2023/01/23 12:07:20;;;;;;;23.90;15.20;;;;;;;1.36;100.00;101420.02;449678;1251;143280;-62
2023/01/23 12:17:35;;;;;;;26.70;16.30;;;;;;;1.31;100.00;101410.87;450387;1252;142943;-62
2023/01/23 12:27:44;;;;;;;26.60;18.10;;;;;;;1.41;100.00;101405.38;449023;1251;145357;-62
2023/01/23 12:38:06;;;;;;;24.00;15.50;;;;;;;1.23;100.00;101411.52;440107;1251;142370;-63
2023/01/23 12:48:16;;;;;;;23.00;14.80;;;;;;;1.04;100.00;101419.89;450474;1251;142437;-62
2023/01/23 12:58:25;;;;;;;27.40;16.70;;;;;;;0.90;100.00;101424.31;449812;1251;142992;-63
2023/01/23 13:08:40;;;;;;;23.90;16.10;;;;;;;0.78;100.00;101433.55;450495;1252;142960;-63
2023/01/23 13:29:51;;;;;;;26.30;15.80;;;;;;;0.63;100.00;101452.23;445018;1251;142223;-62
2023/01/23 13:40:16;;;;;;;30.50;16.90;;;;;;;0.48;100.00;101447.30;449597;1250;143520;-63
2023/01/23 13:50:30;;;;;;;36.20;20.40;;;;;;;0.39;100.00;101451.20;450422;1251;142755;-62
2023/01/23 14:11:37;;;;;;;43.20;24.40;;;;;;;0.26;100.00;101455.91;446702;1263;142182;-62
2023/01/23 14:22:00;;;;;;;43.80;24.90;;;;;;;0.21;100.00;101467.92;443637;1270;143219;-62
2023/01/23 14:32:20;;;;;;;49.70;26.70;;;;;;;0.15;100.00;101469.60;434608;1256;141923;-61
2023/01/23 14:42:28;;;;;;;48.80;26.50;;;;;;;0.07;100.00;101473.66;448861;1252;143439;-62
2023/01/23 14:52:34;;;;;;;42.80;25.60;;;;;;;0.00;100.00;101469.63;450255;1252;142720;-64
2023/01/23 15:02:42;;;;;;;41.70;24.10;;;;;;;-0.05;100.00;101472.86;450150;1252;142956;-61
2023/01/23 15:12:55;;;;;;;42.60;24.80;;;;;;;-0.07;100.00;101480.06;449322;1252;143552;-62
2023/01/23 15:23:20;;;;;;;40.50;23.50;;;;;;;-0.08;100.00;101481.25;450390;1253;144166;-62
2023/01/23 15:33:28;;;;;;;40.50;23.50;;;;;;;-0.08;100.00;101484.52;449187;1251;143324;-62
2023/01/23 15:43:34;;;;;;;37.10;21.10;;;;;;;-0.11;100.00;101493.28;450077;1254;143566;-62
2023/01/23 15:53:40;;;;;;;45.40;26.40;;;;;;;-0.12;100.00;101487.23;450235;1251;143874;-61
2023/01/23 16:03:46;;;;;;;45.90;26.00;;;;;;;-0.07;100.00;101486.77;449381;1251;145698;-61
2023/01/23 16:13:52;;;;;;;40.00;23.60;;;;;;;-0.07;100.00;101496.94;450217;1251;142811;-61
2023/01/23 16:23:59;;;;;;;39.70;24.60;;;;;;;-0.07;100.00;101498.31;450179;1251;142769;-61
2023/01/23 16:34:05;;;;;;;40.00;25.20;;;;;;;-0.09;100.00;101507.94;449423;1251;143121;-64
2023/01/23 16:44:14;;;;;;;33.20;22.00;;;;;;;-0.14;100.00;101511.16;449176;1251;142932;-61
2023/01/23 16:54:21;;;;;;;32.20;20.50;;;;;;;-0.10;100.00;101513.77;450128;1251;144359;-63
2023/01/23 17:04:28;;;;;;;29.50;18.80;;;;;;;-0.10;100.00;101519.12;449685;1251;201300;-61
2023/01/23 17:14:33;;;;;;;;;;;;;;;-0.11;100.00;101517.39;450070;1251;145518;-62
2023/01/23 17:24:39;;;;;;;34.80;22.60;;;;;;;-0.17;100.00;101519.38;449742;1251;129427;-62
2023/01/23 17:34:45;;;;;;;35.30;22.60;;;;;;;-0.19;100.00;101531.40;450224;1251;143700;-61
2023/01/23 17:44:55;;;;;;;32.70;22.40;;;;;;;-0.18;100.00;101537.44;450201;1251;143310;-62
2023/01/23 17:55:01;;;;;;;36.40;22.30;;;;;;;-0.20;100.00;101542.25;449460;1251;143304;-61
2023/01/23 18:05:10;;;;;;;33.10;21.30;;;;;;;-0.22;100.00;101539.30;450192;1251;142213;-61
2023/01/23 18:15:20;;;;;;;34.20;20.30;;;;;;;-0.23;100.00;101544.27;450204;1251;143227;-61
2023/01/23 18:25:29;;;;;;;31.30;19.70;;;;;;;-0.24;100.00;101544.45;449714;1251;213194;-62
2023/01/23 18:36:01;;;;;;;33.60;22.40;;;;;;;-0.23;100.00;101544.27;450142;1251;143676;-62
2023/01/23 18:46:10;;;;;;;33.70;21.10;;;;;;;-0.23;100.00;101551.51;449416;1251;143425;-61
2023/01/23 18:56:28;;;;;;;34.00;21.80;;;;;;;-0.24;100.00;101552.01;450099;1251;143303;-61
2023/01/23 19:06:36;;;;;;;32.20;20.90;;;;;;;-0.24;100.00;101551.49;448175;1251;146069;-61
2023/01/23 19:16:45;;;;;;;26.40;19.40;;;;;;;-0.24;100.00;101556.65;450141;1251;142983;-62
2023/01/23 19:26:53;;;;;;;31.00;20.70;;;;;;;-0.22;100.00;101557.89;450113;1250;145340;-61
2023/01/23 19:36:58;;;;;;;28.10;20.80;;;;;;;-0.19;100.00;101555.16;449341;1251;144178;-61
2023/01/23 19:47:05;;;;;;;34.10;22.10;;;;;;;-0.15;100.00;101554.70;450057;1250;143267;-62
2023/01/23 19:57:12;;;;;;;;;;;;;;;-0.12;100.00;101552.15;450154;1251;142781;-61
2023/01/23 20:07:18;;;;;;;34.70;23.70;;;;;;;-0.10;100.00;101554.08;439669;1251;130217;-60
2023/01/23 20:17:24;;;;;;;33.20;24.00;;;;;;;-0.08;100.00;101556.15;450286;1251;143558;-61
2023/01/23 20:27:29;;;;;;;35.80;24.10;;;;;;;-0.06;100.00;101561.17;442149;1251;144399;-61
2023/01/23 20:37:35;;;;;;;35.10;24.50;;;;;;;-0.08;100.00;101560.98;450111;1251;143351;-62
2023/01/23 20:47:41;;;;;;;39.90;26.10;;;;;;;-0.10;100.00;101561.48;450115;1251;142618;-61
2023/01/23 21:08:10;;;;;;;36.70;26.20;;;;;;;-0.10;100.00;101572.15;450008;1251;143564;-62
2023/01/23 21:18:16;;;;;;;39.70;27.30;;;;;;;-0.13;100.00;101565.73;443580;1251;141820;-61
2023/01/23 21:28:22;;;;;;;42.20;28.60;;;;;;;-0.15;100.00;101561.77;432813;1251;213003;-60
2023/01/23 21:38:28;;;;;;;44.30;28.20;;;;;;;-0.15;100.00;101563.99;442046;1251;158060;-61
2023/01/23 21:48:34;;;;;;;35.20;23.50;;;;;;;-0.17;100.00;101555.36;446601;1251;144608;-61
2023/01/23 21:58:43;;;;;;;43.80;28.90;;;;;;;-0.14;100.00;101554.20;435432;1251;144579;-61
2023/01/23 22:08:49;;;;;;;37.30;24.10;;;;;;;-0.17;100.00;101556.74;450245;1249;143237;-62
2023/01/23 22:18:55;;;;;;;39.90;25.50;;;;;;;-0.17;100.00;101552.78;449477;1249;142466;-61
2023/01/23 22:29:01;;;;;;;38.50;22.30;;;;;;;-0.14;100.00;101564.00;442307;1250;143020;-64
2023/01/23 22:39:07;;;;;;;43.80;26.30;;;;;;;-0.11;100.00;101571.27;443343;1250;142849;-61
2023/01/23 22:49:13;;;;;;;46.60;28.60;;;;;;;-0.12;100.00;101587.61;447896;1250;143892;-62
2023/01/23 22:59:19;;;;;;;48.90;28.00;;;;;;;-0.11;100.00;101588.66;450141;1251;143407;-60
2023/01/23 23:09:24;;;;;;;45.20;30.40;;;;;;;-0.14;100.00;101591.05;449417;1252;144065;-61
2023/01/23 23:19:31;;;;;;;41.30;25.50;;;;;;;-0.13;100.00;101590.53;445103;1250;142856;-61
2023/01/23 23:29:37;;;;;;;44.00;27.60;;;;;;;-0.12;100.00;101585.88;435599;1251;145460;-60
2023/01/23 23:39:43;;;;;;;48.50;28.50;;;;;;;-0.14;100.00;101582.42;436223;1250;143480;-61
2023/01/23 23:49:49;;;;;;;49.70;27.80;;;;;;;-0.22;100.00;101588.69;436553;1251;142287;-60
2023/01/23 23:59:54;;;;;;;51.60;30.40;;;;;;;-0.24;100.00;101583.69;433969;1253;143297;-60
